sensor_id;sensor_type;location;lat;lon;timestamp;pressure;altitude;pressure_sealevel;temperature;humidity
15314;BME280;7757;52.626;4.746;2023-11-21T00:00:49;100880.03;;;16.14;79.24
15314;BME280;7757;52.626;4.746;2023-11-21T00:03:15;100906.28;;;16.26;79.23
15314;BME280;7757;52.626;4.746;2023-11-21T00:05:43;100922.59;;;16.37;78.97
15314;BME280;7757;52.626;4.746;2023-11-21T00:08:10;100918.22;;;16.36;78.85
15314;BME280;7757;52.626;4.746;2023-11-21T00:10:36;100838.78;;;15.83;79.08
15314;BME280;7757;52.626;4.746;2023-11-21T00:13:04;100890.00;;;16.14;79.24
15314;BME280;7757;52.626;4.746;2023-11-21T00:15:29;100929.69;;;16.32;79.44
15314;BME280;7757;52.626;4.746;2023-11-21T00:17:54;100906.94;;;16.21;79.14
15314;BME280;7757;52.626;4.746;2023-11-21T00:20:20;100925.34;;;16.31;79.12
15314;BME280;7757;52.626;4.746;2023-11-21T00:22:45;100912.31;;;16.21;79.28
15314;BME280;7757;52.626;4.746;2023-11-21T00:25:12;100918.94;;;16.25;79.19
15314;BME280;7757;52.626;4.746;2023-11-21T00:27:39;100927.81;;;16.32;79.47
15314;BME280;7757;52.626;4.746;2023-11-21T00:30:05;100916.25;;;16.25;79.50
15314;BME280;7757;52.626;4.746;2023-11-21T00:32:31;100925.56;;;16.29;79.11
15314;BME280;7757;52.626;4.746;2023-11-21T00:34:56;100925.34;;;16.31;79.04
15314;BME280;7757;52.626;4.746;2023-11-21T00:37:22;100899.91;;;16.20;78.92
15314;BME280;7757;52.626;4.746;2023-11-21T00:39:49;100866.25;;;15.98;79.14
15314;BME280;7757;52.626;4.746;2023-11-21T00:42:14;100896.03;;;16.09;78.99
15314;BME280;7757;52.626;4.746;2023-11-21T00:44:39;100928.06;;;16.24;79.22
15314;BME280;7757;52.626;4.746;2023-11-21T00:47:05;100883.69;;;15.95;79.29
15314;BME280;7757;52.626;4.746;2023-11-21T00:49:30;100816.38;;;15.57;79.24
15314;BME280;7757;52.626;4.746;2023-11-21T00:51:56;100882.00;;;16.01;79.12
15314;BME280;7757;52.626;4.746;2023-11-21T00:54:23;100900.00;;;16.07;79.29
15314;BME280;7757;52.626;4.746;2023-11-21T00:56:48;100934.69;;;16.28;79.10
15314;BME280;7757;52.626;4.746;2023-11-21T00:59:14;100893.63;;;16.01;79.31
15314;BME280;7757;52.626;4.746;2023-11-21T01:01:39;100881.88;;;15.89;79.18
15314;BME280;7757;52.626;4.746;2023-11-21T01:04:05;100901.72;;;16.01;79.51
15314;BME280;7757;52.626;4.746;2023-11-21T01:06:32;100947.38;;;16.28;78.87
15314;BME280;7757;52.626;4.746;2023-11-21T01:08:58;100941.03;;;16.15;79.17
15314;BME280;7757;52.626;4.746;2023-11-21T01:11:23;100951.28;;;16.32;78.83
15314;BME280;7757;52.626;4.746;2023-11-21T01:13:48;100970.19;;;16.32;79.16
15314;BME280;7757;52.626;4.746;2023-11-21T01:16:14;100975.97;;;16.35;78.89
15314;BME280;7757;52.626;4.746;2023-11-21T01:18:39;100907.44;;;15.87;79.15
15314;BME280;7757;52.626;4.746;2023-11-21T01:21:04;100979.53;;;16.29;79.21
15314;BME280;7757;52.626;4.746;2023-11-21T01:23:30;100965.09;;;16.17;79.13
15314;BME280;7757;52.626;4.746;2023-11-21T01:25:56;100962.41;;;16.17;78.95
15314;BME280;7757;52.626;4.746;2023-11-21T01:28:22;100989.94;;;16.26;78.86
15314;BME280;7757;52.626;4.746;2023-11-21T01:30:48;100991.81;;;16.25;79.05
15314;BME280;7757;52.626;4.746;2023-11-21T01:33:13;100992.41;;;16.27;79.48
15314;BME280;7757;52.626;4.746;2023-11-21T01:35:41;100972.00;;;16.06;78.94
15314;BME280;7757;52.626;4.746;2023-11-21T01:38:06;100960.66;;;15.98;79.20
15314;BME280;7757;52.626;4.746;2023-11-21T01:40:33;101004.72;;;16.23;79.36
15314;BME280;7757;52.626;4.746;2023-11-21T01:42:59;100994.31;;;16.27;79.25
15314;BME280;7757;52.626;4.746;2023-11-21T01:45:24;100962.69;;;16.09;78.90
15314;BME280;7757;52.626;4.746;2023-11-21T01:47:50;101004.63;;;16.30;79.07
15314;BME280;7757;52.626;4.746;2023-11-21T01:50:16;100879.03;;;15.53;78.50
15314;BME280;7757;52.626;4.746;2023-11-21T01:52:45;100985.69;;;16.11;79.11
15314;BME280;7757;52.626;4.746;2023-11-21T01:55:11;101000.75;;;16.26;79.02
15314;BME280;7757;52.626;4.746;2023-11-21T01:57:37;100977.41;;;16.06;79.01
15314;BME280;7757;52.626;4.746;2023-11-21T02:00:04;101010.09;;;16.23;79.02
15314;BME280;7757;52.626;4.746;2023-11-21T02:02:44;101005.16;;;16.20;79.55
15314;BME280;7757;52.626;4.746;2023-11-21T02:05:14;101006.44;;;16.11;78.97
15314;BME280;7757;52.626;4.746;2023-11-21T02:07:40;101015.91;;;16.27;79.02
15314;BME280;7757;52.626;4.746;2023-11-21T02:10:07;100958.28;;;15.83;78.91
15314;BME280;7757;52.626;4.746;2023-11-21T02:12:33;100982.25;;;15.98;79.45
15314;BME280;7757;52.626;4.746;2023-11-21T02:15:00;100980.97;;;16.00;78.70
15314;BME280;7757;52.626;4.746;2023-11-21T02:17:26;100977.91;;;15.97;79.06
15314;BME280;7757;52.626;4.746;2023-11-21T02:19:52;100975.00;;;15.98;78.89
15314;BME280;7757;52.626;4.746;2023-11-21T02:22:18;101007.72;;;16.08;79.32
15314;BME280;7757;52.626;4.746;2023-11-21T02:24:45;101030.88;;;16.23;78.63
15314;BME280;7757;52.626;4.746;2023-11-21T02:27:13;100969.47;;;15.87;79.22
15314;BME280;7757;52.626;4.746;2023-11-21T02:29:38;101013.31;;;16.07;79.13
15314;BME280;7757;52.626;4.746;2023-11-21T02:32:05;101032.13;;;16.20;79.00
15314;BME280;7757;52.626;4.746;2023-11-21T02:34:30;100917.22;;;15.43;79.20
15314;BME280;7757;52.626;4.746;2023-11-21T02:36:56;100993.22;;;16.03;78.68
15314;BME280;7757;52.626;4.746;2023-11-21T02:39:22;101010.41;;;16.08;79.15
15314;BME280;7757;52.626;4.746;2023-11-21T02:41:47;101028.81;;;16.18;79.04
15314;BME280;7757;52.626;4.746;2023-11-21T02:44:13;101006.31;;;15.99;79.08
15314;BME280;7757;52.626;4.746;2023-11-21T02:46:39;101033.59;;;16.16;78.93
15314;BME280;7757;52.626;4.746;2023-11-21T02:49:06;101041.66;;;16.23;78.66
15314;BME280;7757;52.626;4.746;2023-11-21T02:51:33;101042.53;;;16.16;78.65
15314;BME280;7757;52.626;4.746;2023-11-21T02:53:59;101029.31;;;16.08;78.86
15314;BME280;7757;52.626;4.746;2023-11-21T02:56:27;101055.16;;;16.23;78.91
15314;BME280;7757;52.626;4.746;2023-11-21T02:58:55;101046.22;;;16.22;78.93
15314;BME280;7757;52.626;4.746;2023-11-21T03:01:21;101048.31;;;16.20;78.61
15314;BME280;7757;52.626;4.746;2023-11-21T03:03:47;100954.03;;;15.62;78.84
15314;BME280;7757;52.626;4.746;2023-11-21T03:06:19;101052.50;;;16.16;79.47
15314;BME280;7757;52.626;4.746;2023-11-21T03:08:45;101054.34;;;16.15;79.30
15314;BME280;7757;52.626;4.746;2023-11-21T03:11:10;101052.28;;;16.17;79.21
15314;BME280;7757;52.626;4.746;2023-11-21T03:13:36;101064.56;;;16.13;79.33
15314;BME280;7757;52.626;4.746;2023-11-21T03:16:01;101058.31;;;16.13;79.53
15314;BME280;7757;52.626;4.746;2023-11-21T03:18:26;100997.13;;;15.76;78.84
15314;BME280;7757;52.626;4.746;2023-11-21T03:20:54;100992.59;;;15.70;79.14
15314;BME280;7757;52.626;4.746;2023-11-21T03:23:19;101052.59;;;16.03;79.13
15314;BME280;7757;52.626;4.746;2023-11-21T03:25:45;100973.81;;;15.50;78.99
15314;BME280;7757;52.626;4.746;2023-11-21T03:28:10;101069.94;;;16.13;79.06
15314;BME280;7757;52.626;4.746;2023-11-21T03:30:37;101076.81;;;16.09;78.77
15314;BME280;7757;52.626;4.746;2023-11-21T03:33:02;101050.56;;;15.92;78.92
15314;BME280;7757;52.626;4.746;2023-11-21T03:35:28;100964.53;;;15.33;79.40
15314;BME280;7757;52.626;4.746;2023-11-21T03:37:53;101069.41;;;15.98;79.33
15314;BME280;7757;52.626;4.746;2023-11-21T03:40:19;101076.44;;;16.06;79.25
15314;BME280;7757;52.626;4.746;2023-11-21T03:42:46;101082.19;;;16.09;79.37
15314;BME280;7757;52.626;4.746;2023-11-21T03:45:12;101061.56;;;15.90;78.99
15314;BME280;7757;52.626;4.746;2023-11-21T03:47:38;101093.00;;;16.09;79.29
15314;BME280;7757;52.626;4.746;2023-11-21T03:50:04;101090.97;;;16.05;79.29
15314;BME280;7757;52.626;4.746;2023-11-21T03:52:30;101079.38;;;15.91;79.18
15314;BME280;7757;52.626;4.746;2023-11-21T03:54:56;101087.94;;;15.88;79.81
15314;BME280;7757;52.626;4.746;2023-11-21T03:57:21;101110.03;;;16.03;79.22
15314;BME280;7757;52.626;4.746;2023-11-21T03:59:46;101075.72;;;15.79;79.41
15314;BME280;7757;52.626;4.746;2023-11-21T04:02:12;100984.06;;;15.22;79.27
15314;BME280;7757;52.626;4.746;2023-11-21T04:04:37;101049.03;;;15.65;78.68
15314;BME280;7757;52.626;4.746;2023-11-21T04:07:03;101090.00;;;15.86;78.91
15314;BME280;7757;52.626;4.746;2023-11-21T04:09:29;101043.47;;;15.53;78.93
15314;BME280;7757;52.626;4.746;2023-11-21T04:11:54;101117.13;;;15.98;78.83
15314;BME280;7757;52.626;4.746;2023-11-21T04:14:20;101049.47;;;15.61;79.55
15314;BME280;7757;52.626;4.746;2023-11-21T04:16:46;101122.75;;;15.96;79.34
15314;BME280;7757;52.626;4.746;2023-11-21T04:19:11;101128.56;;;16.00;79.67
15314;BME280;7757;52.626;4.746;2023-11-21T04:21:40;101119.84;;;15.91;79.57
15314;BME280;7757;52.626;4.746;2023-11-21T04:24:06;101137.88;;;15.97;79.36
15314;BME280;7757;52.626;4.746;2023-11-21T04:26:32;101130.44;;;15.93;79.27
15314;BME280;7757;52.626;4.746;2023-11-21T04:28:57;101142.66;;;15.95;79.39
15314;BME280;7757;52.626;4.746;2023-11-21T04:31:22;101125.50;;;15.83;79.48
15314;BME280;7757;52.626;4.746;2023-11-21T04:33:48;101098.00;;;15.61;79.19
15314;BME280;7757;52.626;4.746;2023-11-21T04:36:13;101151.41;;;15.91;79.44
15314;BME280;7757;52.626;4.746;2023-11-21T04:38:39;101134.66;;;15.76;79.39
15314;BME280;7757;52.626;4.746;2023-11-21T04:41:04;101176.72;;;15.96;79.23
15314;BME280;7757;52.626;4.746;2023-11-21T04:43:31;101169.66;;;15.89;79.61
15314;BME280;7757;52.626;4.746;2023-11-21T04:45:56;101158.09;;;15.82;79.60
15314;BME280;7757;52.626;4.746;2023-11-21T04:48:21;101163.22;;;15.90;79.38
15314;BME280;7757;52.626;4.746;2023-11-21T04:50:47;101167.59;;;15.91;79.16
15314;BME280;7757;52.626;4.746;2023-11-21T04:53:12;101181.69;;;15.93;79.42
15314;BME280;7757;52.626;4.746;2023-11-21T04:55:40;101109.22;;;15.52;79.03
15314;BME280;7757;52.626;4.746;2023-11-21T04:58:05;101173.19;;;15.83;79.28
15314;BME280;7757;52.626;4.746;2023-11-21T05:00:31;101173.59;;;15.93;79.63
15314;BME280;7757;52.626;4.746;2023-11-21T05:02:56;101208.22;;;16.02;80.02
15314;BME280;7757;52.626;4.746;2023-11-21T05:05:22;101111.88;;;15.45;79.18
15314;BME280;7757;52.626;4.746;2023-11-21T05:07:47;101195.59;;;15.90;79.51
15314;BME280;7757;52.626;4.746;2023-11-21T05:10:14;101178.00;;;15.81;79.07
15314;BME280;7757;52.626;4.746;2023-11-21T05:12:41;101217.34;;;16.01;79.62
15314;BME280;7757;52.626;4.746;2023-11-21T05:15:07;101218.19;;;16.02;79.28
15314;BME280;7757;52.626;4.746;2023-11-21T05:17:37;101223.41;;;15.97;79.54
15314;BME280;7757;52.626;4.746;2023-11-21T05:20:04;101168.28;;;15.67;79.49
15314;BME280;7757;52.626;4.746;2023-11-21T05:22:34;101193.34;;;15.80;79.63
15314;BME280;7757;52.626;4.746;2023-11-21T05:24:59;101220.06;;;15.95;79.21
15314;BME280;7757;52.626;4.746;2023-11-21T05:27:25;101150.66;;;15.44;79.41
15314;BME280;7757;52.626;4.746;2023-11-21T05:29:50;101249.53;;;16.03;79.36
15314;BME280;7757;52.626;4.746;2023-11-21T05:32:15;101117.75;;;15.23;79.23
15314;BME280;7757;52.626;4.746;2023-11-21T05:34:42;101231.94;;;15.87;79.42
15314;BME280;7757;52.626;4.746;2023-11-21T05:37:08;101256.56;;;15.97;79.60
15314;BME280;7757;52.626;4.746;2023-11-21T05:39:34;101257.22;;;15.93;79.28
15314;BME280;7757;52.626;4.746;2023-11-21T05:42:01;101216.41;;;15.63;79.60
15314;BME280;7757;52.626;4.746;2023-11-21T05:44:26;101261.19;;;15.90;79.26
15314;BME280;7757;52.626;4.746;2023-11-21T05:46:52;101251.63;;;15.88;79.62
15314;BME280;7757;52.626;4.746;2023-11-21T05:49:17;101221.19;;;15.61;79.30
15314;BME280;7757;52.626;4.746;2023-11-21T05:51:47;101234.84;;;15.73;79.41
15314;BME280;7757;52.626;4.746;2023-11-21T05:54:12;101199.16;;;15.44;79.48
15314;BME280;7757;52.626;4.746;2023-11-21T05:56:38;101264.09;;;15.82;79.47
15314;BME280;7757;52.626;4.746;2023-11-21T05:59:03;101281.28;;;16.01;79.41
15314;BME280;7757;52.626;4.746;2023-11-21T06:01:28;101274.25;;;16.00;78.81
15314;BME280;7757;52.626;4.746;2023-11-21T06:03:54;101288.94;;;15.97;79.79
15314;BME280;7757;52.626;4.746;2023-11-21T06:06:20;101280.47;;;15.94;79.58
15314;BME280;7757;52.626;4.746;2023-11-21T06:08:48;101264.91;;;15.83;79.47
15314;BME280;7757;52.626;4.746;2023-11-21T06:11:14;101229.88;;;15.56;79.60
15314;BME280;7757;52.626;4.746;2023-11-21T06:13:39;101303.91;;;15.93;79.93
15314;BME280;7757;52.626;4.746;2023-11-21T06:16:05;101306.19;;;15.96;79.41
15314;BME280;7757;52.626;4.746;2023-11-21T06:18:30;101306.81;;;15.92;79.90
15314;BME280;7757;52.626;4.746;2023-11-21T06:20:56;101308.66;;;15.91;79.91
15314;BME280;7757;52.626;4.746;2023-11-21T06:23:21;101235.25;;;15.37;80.13
15314;BME280;7757;52.626;4.746;2023-11-21T06:25:47;101283.19;;;15.74;80.02
15314;BME280;7757;52.626;4.746;2023-11-21T06:28:13;101321.56;;;15.89;79.46
15314;BME280;7757;52.626;4.746;2023-11-21T06:30:42;101318.66;;;15.84;79.77
15314;BME280;7757;52.626;4.746;2023-11-21T06:33:09;101336.91;;;15.89;79.78
15314;BME280;7757;52.626;4.746;2023-11-21T06:35:34;101296.47;;;15.69;79.58
15314;BME280;7757;52.626;4.746;2023-11-21T06:38:00;101303.53;;;15.70;79.60
15314;BME280;7757;52.626;4.746;2023-11-21T06:40:25;101338.34;;;15.91;79.83
15314;BME280;7757;52.626;4.746;2023-11-21T06:42:51;101350.38;;;15.95;79.96
15314;BME280;7757;52.626;4.746;2023-11-21T06:45:16;101347.91;;;15.94;79.58
15314;BME280;7757;52.626;4.746;2023-11-21T06:47:43;101301.03;;;15.75;79.70
15314;BME280;7757;52.626;4.746;2023-11-21T06:50:09;101359.50;;;16.07;79.21
15314;BME280;7757;52.626;4.746;2023-11-21T06:52:35;101365.94;;;16.13;79.65
15314;BME280;7757;52.626;4.746;2023-11-21T06:55:01;101242.50;;;15.36;79.76
15314;BME280;7757;52.626;4.746;2023-11-21T06:57:26;101323.03;;;15.85;79.43
15314;BME280;7757;52.626;4.746;2023-11-21T06:59:51;101374.47;;;16.16;79.66
15314;BME280;7757;52.626;4.746;2023-11-21T07:02:17;101375.28;;;16.24;79.30
15314;BME280;7757;52.626;4.746;2023-11-21T07:04:46;101332.34;;;16.09;79.00
15314;BME280;7757;52.626;4.746;2023-11-21T07:07:12;101368.41;;;16.28;78.99
15314;BME280;7757;52.626;4.746;2023-11-21T07:09:38;101393.13;;;16.38;78.53
15314;BME280;7757;52.626;4.746;2023-11-21T07:12:04;101403.91;;;16.31;78.59
15314;BME280;7757;52.626;4.746;2023-11-21T07:14:33;101334.44;;;15.87;78.51
15314;BME280;7757;52.626;4.746;2023-11-21T07:16:58;101415.56;;;16.38;78.21
15314;BME280;7757;52.626;4.746;2023-11-21T07:19:24;101417.22;;;16.26;78.45
15314;BME280;7757;52.626;4.746;2023-11-21T07:21:49;101394.59;;;16.14;78.49
15314;BME280;7757;52.626;4.746;2023-11-21T07:24:18;101397.09;;;16.09;77.93
15314;BME280;7757;52.626;4.746;2023-11-21T07:26:43;101431.09;;;16.30;78.23
15314;BME280;7757;52.626;4.746;2023-11-21T07:29:09;101446.06;;;16.39;78.14
15314;BME280;7757;52.626;4.746;2023-11-21T07:31:36;101451.25;;;16.40;78.21
15314;BME280;7757;52.626;4.746;2023-11-21T07:34:03;101429.06;;;16.38;78.00
15314;BME280;7757;52.626;4.746;2023-11-21T07:36:30;101403.31;;;16.23;77.71
15314;BME280;7757;52.626;4.746;2023-11-21T07:38:55;101459.34;;;16.47;78.02
15314;BME280;7757;52.626;4.746;2023-11-21T07:41:20;101430.91;;;16.25;78.08
15314;BME280;7757;52.626;4.746;2023-11-21T07:43:46;101458.31;;;16.35;78.03
15314;BME280;7757;52.626;4.746;2023-11-21T07:46:12;101419.50;;;16.09;77.93
15314;BME280;7757;52.626;4.746;2023-11-21T07:48:39;101478.88;;;16.42;78.23
15314;BME280;7757;52.626;4.746;2023-11-21T07:51:05;101490.31;;;16.44;77.72
15314;BME280;7757;52.626;4.746;2023-11-21T07:53:30;101451.88;;;16.09;77.96
15314;BME280;7757;52.626;4.746;2023-11-21T07:56:03;101491.94;;;16.39;78.16
15314;BME280;7757;52.626;4.746;2023-11-21T07:58:29;101489.25;;;16.39;77.96
15314;BME280;7757;52.626;4.746;2023-11-21T08:00:54;101458.13;;;16.16;77.87
15314;BME280;7757;52.626;4.746;2023-11-21T08:03:19;101482.41;;;16.30;77.94
15314;BME280;7757;52.626;4.746;2023-11-21T08:05:46;101504.66;;;16.38;77.93
15314;BME280;7757;52.626;4.746;2023-11-21T08:08:11;101512.75;;;16.38;78.17
15314;BME280;7757;52.626;4.746;2023-11-21T08:10:37;101460.38;;;16.06;77.32
15314;BME280;7757;52.626;4.746;2023-11-21T08:13:03;101468.72;;;16.11;77.80
15314;BME280;7757;52.626;4.746;2023-11-21T08:15:29;101518.34;;;16.43;78.05
15314;BME280;7757;52.626;4.746;2023-11-21T08:17:54;101394.34;;;15.63;78.88
15314;BME280;7757;52.626;4.746;2023-11-21T08:20:20;101515.63;;;16.37;78.10
15314;BME280;7757;52.626;4.746;2023-11-21T08:22:47;101483.44;;;16.15;77.99
15314;BME280;7757;52.626;4.746;2023-11-21T08:25:13;101460.19;;;16.01;78.04
15314;BME280;7757;52.626;4.746;2023-11-21T08:27:39;101535.16;;;16.45;77.72
15314;BME280;7757;52.626;4.746;2023-11-21T08:30:05;101477.41;;;16.07;77.72
15314;BME280;7757;52.626;4.746;2023-11-21T08:32:30;101513.16;;;16.29;77.92
15314;BME280;7757;52.626;4.746;2023-11-21T08:35:01;101413.47;;;15.61;78.36
15314;BME280;7757;52.626;4.746;2023-11-21T08:37:26;101533.28;;;16.39;78.27
15314;BME280;7757;52.626;4.746;2023-11-21T08:39:52;101513.34;;;16.27;78.21
15314;BME280;7757;52.626;4.746;2023-11-21T08:42:19;101542.03;;;16.41;77.65
15314;BME280;7757;52.626;4.746;2023-11-21T08:44:45;101452.66;;;15.77;77.96
15314;BME280;7757;52.626;4.746;2023-11-21T08:47:11;101553.22;;;16.32;78.19
15314;BME280;7757;52.626;4.746;2023-11-21T08:49:36;101552.19;;;16.39;78.17
15314;BME280;7757;52.626;4.746;2023-11-21T08:52:03;101555.91;;;16.32;77.86
15314;BME280;7757;52.626;4.746;2023-11-21T08:54:30;101562.78;;;16.41;78.06
15314;BME280;7757;52.626;4.746;2023-11-21T08:56:56;101572.75;;;16.40;77.96
15314;BME280;7757;52.626;4.746;2023-11-21T08:59:24;101567.53;;;16.39;78.13
15314;BME280;7757;52.626;4.746;2023-11-21T09:01:50;101509.59;;;16.02;78.01
15314;BME280;7757;52.626;4.746;2023-11-21T09:04:16;101562.34;;;16.24;78.22
15314;BME280;7757;52.626;4.746;2023-11-21T09:06:41;101504.97;;;15.83;78.09
15314;BME280;7757;52.626;4.746;2023-11-21T09:09:06;101591.03;;;16.38;78.42
15314;BME280;7757;52.626;4.746;2023-11-21T09:11:33;101504.56;;;15.79;78.41
15314;BME280;7757;52.626;4.746;2023-11-21T09:13:59;101558.75;;;16.04;78.26
15314;BME280;7757;52.626;4.746;2023-11-21T09:16:26;101518.25;;;15.84;78.03
15314;BME280;7757;52.626;4.746;2023-11-21T09:18:52;101606.34;;;16.25;78.53
15314;BME280;7757;52.626;4.746;2023-11-21T09:21:17;101548.56;;;15.93;78.20
15314;BME280;7757;52.626;4.746;2023-11-21T09:23:46;101552.69;;;15.89;78.39
15314;BME280;7757;52.626;4.746;2023-11-21T09:26:12;101561.63;;;15.89;78.28
15314;BME280;7757;52.626;4.746;2023-11-21T09:28:37;101520.03;;;15.57;78.26
15314;BME280;7757;52.626;4.746;2023-11-21T09:31:05;101593.41;;;16.00;78.59
15314;BME280;7757;52.626;4.746;2023-11-21T09:33:30;101540.41;;;15.67;78.43
15314;BME280;7757;52.626;4.746;2023-11-21T09:35:56;101499.84;;;15.40;78.24
15314;BME280;7757;52.626;4.746;2023-11-21T09:38:22;101661.22;;;16.32;78.45
15314;BME280;7757;52.626;4.746;2023-11-21T09:40:48;101597.31;;;15.85;78.06
15314;BME280;7757;52.626;4.746;2023-11-21T09:43:18;101671.34;;;16.23;78.18
15314;BME280;7757;52.626;4.746;2023-11-21T09:45:52;101620.41;;;15.94;78.29
15314;BME280;7757;52.626;4.746;2023-11-21T09:48:20;101692.53;;;16.33;78.64
15314;BME280;7757;52.626;4.746;2023-11-21T09:50:47;101695.25;;;16.33;78.06
15314;BME280;7757;52.626;4.746;2023-11-21T09:55:42;101628.03;;;15.84;78.48
15314;BME280;7757;52.626;4.746;2023-11-21T09:58:09;101545.00;;;15.32;78.31
15314;BME280;7757;52.626;4.746;2023-11-21T10:00:42;101706.03;;;16.26;78.28
15314;BME280;7757;52.626;4.746;2023-11-21T10:03:09;101716.00;;;16.26;78.38
15314;BME280;7757;52.626;4.746;2023-11-21T10:05:36;101670.25;;;16.04;78.08
15314;BME280;7757;52.626;4.746;2023-11-21T10:08:11;101673.97;;;16.03;77.90
15314;BME280;7757;52.626;4.746;2023-11-21T10:10:38;101636.31;;;15.82;78.38
15314;BME280;7757;52.626;4.746;2023-11-21T10:13:11;101703.50;;;16.18;78.13
15314;BME280;7757;52.626;4.746;2023-11-21T10:15:38;101612.34;;;15.59;78.16
15314;BME280;7757;52.626;4.746;2023-11-21T10:18:04;101733.03;;;16.26;77.84
15314;BME280;7757;52.626;4.746;2023-11-21T10:20:31;101666.00;;;15.82;78.47
15314;BME280;7757;52.626;4.746;2023-11-21T10:22:59;101661.81;;;15.80;78.43
15314;BME280;7757;52.626;4.746;2023-11-21T10:25:26;101750.69;;;16.29;78.20
15314;BME280;7757;52.626;4.746;2023-11-21T10:27:59;101727.78;;;16.11;78.31
15314;BME280;7757;52.626;4.746;2023-11-21T10:30:33;101749.84;;;16.28;78.02
15314;BME280;7757;52.626;4.746;2023-11-21T10:33:02;101655.13;;;15.69;77.93
15314;BME280;7757;52.626;4.746;2023-11-21T10:35:47;101751.09;;;16.26;78.31
15314;BME280;7757;52.626;4.746;2023-11-21T10:38:18;101689.66;;;15.87;77.95
15314;BME280;7757;52.626;4.746;2023-11-21T10:40:46;101757.31;;;16.26;78.07
15314;BME280;7757;52.626;4.746;2023-11-21T10:43:13;101689.00;;;15.78;77.91
15314;BME280;7757;52.626;4.746;2023-11-21T10:45:42;101760.22;;;16.25;78.26
15314;BME280;7757;52.626;4.746;2023-11-21T10:48:10;101659.91;;;15.67;78.66
15314;BME280;7757;52.626;4.746;2023-11-21T10:50:40;101721.28;;;15.99;78.12
15314;BME280;7757;52.626;4.746;2023-11-21T10:53:06;101757.72;;;16.30;78.54
15314;BME280;7757;52.626;4.746;2023-11-21T10:55:33;101745.91;;;16.31;77.96
15314;BME280;7757;52.626;4.746;2023-11-21T10:58:03;101749.44;;;16.31;78.70
15314;BME280;7757;52.626;4.746;2023-11-21T11:00:31;101753.00;;;16.32;78.09
15314;BME280;7757;52.626;4.746;2023-11-21T11:02:57;101742.78;;;16.21;78.12
15314;BME280;7757;52.626;4.746;2023-11-21T11:05:25;101676.53;;;15.77;77.60
15314;BME280;7757;52.626;4.746;2023-11-21T11:07:59;101769.59;;;16.29;78.22
15314;BME280;7757;52.626;4.746;2023-11-21T11:10:28;101665.91;;;15.69;77.92
15314;BME280;7757;52.626;4.746;2023-11-21T11:12:55;101775.00;;;16.29;77.81
15314;BME280;7757;52.626;4.746;2023-11-21T11:15:23;101766.88;;;16.29;78.00
15314;BME280;7757;52.626;4.746;2023-11-21T11:17:49;101776.00;;;16.28;78.18
15314;BME280;7757;52.626;4.746;2023-11-21T11:20:16;101770.44;;;16.29;77.67
15314;BME280;7757;52.626;4.746;2023-11-21T11:26:32;101746.22;;;16.08;78.09
15314;BME280;7757;52.626;4.746;2023-11-21T11:29:07;101789.91;;;16.25;78.30
15314;BME280;7757;52.626;4.746;2023-11-21T11:34:32;101764.91;;;16.09;78.11
15314;BME280;7757;52.626;4.746;2023-11-21T11:37:04;101802.16;;;16.27;78.32
15314;BME280;7757;52.626;4.746;2023-11-21T11:39:35;101750.34;;;16.04;77.85
15314;BME280;7757;52.626;4.746;2023-11-21T11:42:07;101729.69;;;15.83;78.36
15314;BME280;7757;52.626;4.746;2023-11-21T11:47:29;101782.56;;;16.12;77.92
15314;BME280;7757;52.626;4.746;2023-11-21T11:49:59;101812.97;;;16.27;78.10
15314;BME280;7757;52.626;4.746;2023-11-21T11:55:07;101814.19;;;16.25;78.16
15314;BME280;7757;52.626;4.746;2023-11-21T11:57:35;101705.06;;;15.58;78.07
15314;BME280;7757;52.626;4.746;2023-11-21T12:00:12;101810.09;;;16.29;77.68
15314;BME280;7757;52.626;4.746;2023-11-21T12:02:42;101796.75;;;16.21;78.13
15314;BME280;7757;52.626;4.746;2023-11-21T12:05:11;101786.50;;;16.09;78.21
15314;BME280;7757;52.626;4.746;2023-11-21T12:07:45;101822.53;;;16.30;78.20
15314;BME280;7757;52.626;4.746;2023-11-21T12:10:16;101778.56;;;16.01;78.25
15314;BME280;7757;52.626;4.746;2023-11-21T12:12:50;101823.34;;;16.24;77.95
15314;BME280;7757;52.626;4.746;2023-11-21T12:15:17;101826.06;;;16.30;77.87
15314;BME280;7757;52.626;4.746;2023-11-21T12:17:43;101777.06;;;15.92;77.65
15314;BME280;7757;52.626;4.746;2023-11-21T12:20:10;101837.25;;;16.27;77.89
15314;BME280;7757;52.626;4.746;2023-11-21T12:22:46;101732.25;;;15.63;77.59
15314;BME280;7757;52.626;4.746;2023-11-21T12:25:19;101838.50;;;16.25;77.75
15314;BME280;7757;52.626;4.746;2023-11-21T12:27:45;101851.81;;;16.33;77.76
15314;BME280;7757;52.626;4.746;2023-11-21T12:30:12;101847.66;;;16.30;78.03
15314;BME280;7757;52.626;4.746;2023-11-21T12:32:43;101768.06;;;15.79;77.65
15314;BME280;7757;52.626;4.746;2023-11-21T12:35:09;101790.72;;;15.84;77.94
15314;BME280;7757;52.626;4.746;2023-11-21T12:37:39;101867.41;;;16.31;77.91
15314;BME280;7757;52.626;4.746;2023-11-21T12:40:06;101865.53;;;16.31;78.08
15314;BME280;7757;52.626;4.746;2023-11-21T12:42:33;101784.88;;;15.81;77.50
15314;BME280;7757;52.626;4.746;2023-11-21T12:45:19;101873.63;;;16.31;77.67
15314;BME280;7757;52.626;4.746;2023-11-21T12:48:04;101833.75;;;15.99;77.71
15314;BME280;7757;52.626;4.746;2023-11-21T12:50:34;101838.31;;;15.98;77.65
15314;BME280;7757;52.626;4.746;2023-11-21T12:53:07;101897.94;;;16.31;77.99
15314;BME280;7757;52.626;4.746;2023-11-21T12:55:38;101815.38;;;15.81;77.38
15314;BME280;7757;52.626;4.746;2023-11-21T12:58:05;101880.81;;;16.17;78.09
15314;BME280;7757;52.626;4.746;2023-11-21T13:00:42;101867.06;;;16.12;77.76
15314;BME280;7757;52.626;4.746;2023-11-21T13:03:11;101899.78;;;16.31;77.76
15314;BME280;7757;52.626;4.746;2023-11-21T13:05:40;101839.09;;;15.92;76.94
15314;BME280;7757;52.626;4.746;2023-11-21T13:08:11;101903.34;;;16.31;77.65
15314;BME280;7757;52.626;4.746;2023-11-21T13:10:44;101878.13;;;16.17;77.51
15314;BME280;7757;52.626;4.746;2023-11-21T13:13:12;101892.88;;;16.22;77.80